createdAt,value
2022-11-29T00:01:34.047Z,97127.28
2022-11-29T00:04:01.420Z,97124.97
2022-11-29T00:06:33.195Z,97123.63
2022-11-29T00:09:02.974Z,97117.91
2022-11-29T00:11:51.425Z,97124.28
2022-11-29T00:14:19.639Z,97126.97
2022-11-29T00:16:50.899Z,97122.25
2022-11-29T00:19:17.980Z,97123.81
2022-11-29T00:21:44.545Z,97129.44
2022-11-29T00:24:11.045Z,97129.06
2022-11-29T00:26:37.758Z,97134.28
2022-11-29T00:29:04.636Z,97132.56
2022-11-29T00:31:33.383Z,97121.34
2022-11-29T00:34:02.822Z,97124.09
2022-11-29T00:36:31.690Z,97122.03
2022-11-29T00:38:58.569Z,97115.22
2022-11-29T00:41:29.843Z,97117.22
2022-11-29T00:43:56.380Z,97128.13
2022-11-29T00:46:23.090Z,97123.81
2022-11-29T00:48:49.533Z,97123.06
2022-11-29T00:51:16.046Z,97132.88
2022-11-29T00:53:44.736Z,97125.91
2022-11-29T00:56:11.214Z,97127.78
2022-11-29T00:58:37.758Z,97132.97
2022-11-29T01:01:05.022Z,97126.03
2022-11-29T01:03:34.732Z,97127.22
2022-11-29T01:06:03.140Z,97130.16
2022-11-29T01:08:29.578Z,97126.13
2022-11-29T01:11:08.177Z,97133.94
2022-11-29T01:13:37.420Z,97129.78
2022-11-29T01:16:05.586Z,97135.47
2022-11-29T01:18:32.671Z,97131.38
2022-11-29T01:21:05.560Z,97137.63
2022-11-29T01:23:32.385Z,97131.97
2022-11-29T01:26:01.365Z,97134.75
2022-11-29T01:28:28.415Z,97134.81
2022-11-29T01:30:55.410Z,97138.09
2022-11-29T01:33:24.661Z,97141.03
2022-11-29T01:35:53.203Z,97145.78
2022-11-29T01:38:22.845Z,97143.63
2022-11-29T01:41:20.808Z,97137.75
2022-11-29T01:43:59.801Z,97133.31
2022-11-29T01:46:28.587Z,97133.66
2022-11-29T01:49:06.100Z,97130.44
2022-11-29T01:51:34.862Z,97135.59
2022-11-29T01:54:01.966Z,97128.63
2022-11-29T01:56:30.341Z,97133.72
2022-11-29T01:58:57.066Z,97136.19
2022-11-29T02:01:24.094Z,97130.41
2022-11-29T02:03:50.567Z,97130.81
2022-11-29T02:06:17.645Z,97132.41
2022-11-29T02:08:44.537Z,97127.47
2022-11-29T02:11:26.413Z,97130.13
2022-11-29T02:13:55.840Z,97128.31
2022-11-29T02:16:22.239Z,97123.44
2022-11-29T02:19:22.611Z,97130.00
2022-11-29T02:21:55.976Z,97121.50
2022-11-29T02:24:44.033Z,97120.03
2022-11-29T02:27:47.841Z,97125.25
2022-11-29T02:30:40.368Z,97117.34
2022-11-29T02:33:28.400Z,97123.50
2022-11-29T02:36:06.986Z,97125.56
2022-11-29T02:38:48.675Z,97126.41
2022-11-29T02:41:24.123Z,97128.06
2022-11-29T02:44:20.852Z,97127.25
2022-11-29T02:47:02.920Z,97133.13
2022-11-29T02:49:38.431Z,97135.47
2022-11-29T02:52:11.809Z,97134.25
2022-11-29T02:54:54.675Z,97131.50
2022-11-29T02:57:48.305Z,97139.72
2022-11-29T03:00:23.018Z,97136.28
2022-11-29T03:02:53.499Z,97137.63
2022-11-29T03:05:31.403Z,97146.16
2022-11-29T03:08:12.000Z,97144.84
2022-11-29T03:11:07.822Z,97144.84
2022-11-29T03:14:06.749Z,97161.63
2022-11-29T03:16:43.095Z,97155.81
2022-11-29T03:19:10.138Z,97158.41
2022-11-29T03:21:56.183Z,97152.22
2022-11-29T03:24:31.930Z,97154.41
2022-11-29T03:27:06.696Z,97154.06
2022-11-29T03:29:39.909Z,97157.00
2022-11-29T03:32:33.590Z,97155.47
2022-11-29T03:35:14.945Z,97163.84
2022-11-29T03:38:14.622Z,97160.31
2022-11-29T03:40:59.780Z,97163.34
2022-11-29T03:43:55.165Z,97161.31
2022-11-29T03:46:25.749Z,97171.91
2022-11-29T03:48:59.398Z,97157.00
2022-11-29T03:51:28.929Z,97158.00
2022-11-29T03:54:02.623Z,97165.50
2022-11-29T03:56:29.187Z,97154.72
2022-11-29T03:59:05.312Z,97159.56
2022-11-29T04:01:50.510Z,97167.94
2022-11-29T04:04:28.966Z,97157.25
2022-11-29T04:07:04.476Z,97157.91
2022-11-29T04:09:52.258Z,97156.53
2022-11-29T04:12:46.650Z,97163.84
2022-11-29T04:15:16.045Z,97164.50
2022-11-29T04:17:56.930Z,97165.50
2022-11-29T04:20:52.610Z,97160.50
2022-11-29T04:23:28.047Z,97160.50
2022-11-29T04:26:00.931Z,97165.34
2022-11-29T04:28:39.468Z,97156.94
2022-11-29T04:31:23.074Z,97160.22
2022-11-29T04:34:04.708Z,97164.69
2022-11-29T04:36:50.094Z,97172.09
2022-11-29T04:39:31.706Z,97170.94
2022-11-29T04:42:50.218Z,97166.22
2022-11-29T04:45:38.318Z,97181.13
2022-11-29T04:48:28.997Z,97176.78
2022-11-29T04:51:23.321Z,97174.19
2022-11-29T04:53:52.896Z,97183.22
2022-11-29T04:56:31.572Z,97185.69
2022-11-29T04:59:22.497Z,97188.88
2022-11-29T05:02:07.914Z,97189.88
2022-11-29T05:04:47.795Z,97182.19
2022-11-29T05:07:23.540Z,97176.72
2022-11-29T05:10:01.701Z,97181.38
2022-11-29T05:12:28.177Z,97188.69
2022-11-29T05:15:15.908Z,97191.16
2022-11-29T05:17:58.242Z,97191.28
2022-11-29T05:20:46.384Z,97194.34
2022-11-29T05:23:23.174Z,97192.53
2022-11-29T05:26:05.137Z,97196.31
2022-11-29T05:29:10.597Z,97196.88
2022-11-29T05:32:08.025Z,97197.69
2022-11-29T05:34:49.087Z,97200.44
2022-11-29T05:37:52.798Z,97205.50
2022-11-29T05:41:07.434Z,97203.19
2022-11-29T05:44:07.601Z,97197.81
2022-11-29T05:46:39.847Z,97201.47
2022-11-29T05:49:44.901Z,97203.44
2022-11-29T05:52:14.432Z,97205.44
2022-11-29T05:54:50.017Z,97216.53
2022-11-29T05:57:22.537Z,97207.63
2022-11-29T05:59:51.206Z,97203.31
2022-11-29T06:02:26.938Z,97197.50
2022-11-29T06:05:06.698Z,97206.78
2022-11-29T06:07:48.402Z,97204.50
2022-11-29T06:10:19.740Z,97206.34
2022-11-29T06:13:03.331Z,97212.50
2022-11-29T06:15:49.939Z,97213.72
2022-11-29T06:18:32.257Z,97210.19
2022-11-29T06:21:22.942Z,97214.84
2022-11-29T06:24:20.439Z,97218.63
2022-11-29T06:26:56.103Z,97216.88
2022-11-29T06:29:35.131Z,97224.72
2022-11-29T06:32:14.925Z,97229.59
2022-11-29T06:34:49.045Z,97233.00
2022-11-29T06:37:23.525Z,97226.56
2022-11-29T06:39:50.454Z,97227.47
2022-11-29T06:42:16.969Z,97236.59
2022-11-29T06:44:44.086Z,97232.00
2022-11-29T06:47:27.929Z,97226.38
2022-11-29T06:50:04.172Z,97229.22
2022-11-29T06:52:39.003Z,97228.53
2022-11-29T06:55:14.445Z,97232.03
2022-11-29T06:57:59.465Z,97235.38
2022-11-29T07:00:31.828Z,97239.16
2022-11-29T07:03:26.544Z,97238.41
2022-11-29T07:05:53.405Z,97237.00
2022-11-29T07:08:23.043Z,97240.19
2022-11-29T07:10:53.274Z,97243.34
2022-11-29T07:13:20.801Z,97238.09
2022-11-29T07:16:11.626Z,97243.25
2022-11-29T07:18:57.191Z,97242.19
2022-11-29T07:21:33.856Z,97247.38
2022-11-29T07:24:28.265Z,97240.69
2022-11-29T07:27:15.625Z,97240.47
2022-11-29T07:29:58.184Z,97245.91
2022-11-29T07:33:00.455Z,97241.88
2022-11-29T07:36:05.041Z,97248.94
2022-11-29T07:38:49.866Z,97241.00
2022-11-29T07:41:26.839Z,97250.72
2022-11-29T07:44:11.478Z,97246.75
2022-11-29T07:46:37.965Z,97250.56
2022-11-29T07:49:05.537Z,97243.88
2022-11-29T07:51:32.171Z,97249.66
2022-11-29T07:53:58.604Z,97253.13
2022-11-29T07:56:25.039Z,97250.38
2022-11-29T07:58:51.517Z,97253.25
2022-11-29T08:01:18.066Z,97254.72
2022-11-29T08:03:44.648Z,97248.97
2022-11-29T08:06:11.218Z,97257.28
2022-11-29T08:08:43.554Z,97251.81
2022-11-29T08:11:12.491Z,97261.63
2022-11-29T08:13:38.897Z,97248.59
2022-11-29T08:16:05.638Z,97254.78
2022-11-29T08:18:32.167Z,97252.63
2022-11-29T08:20:58.739Z,97254.22
2022-11-29T08:23:25.222Z,97252.47
2022-11-29T08:25:59.194Z,97250.63
2022-11-29T08:28:25.681Z,97256.66
2022-11-29T08:31:00.311Z,97258.50
2022-11-29T08:33:26.973Z,97257.31
2022-11-29T08:35:53.491Z,97258.06
2022-11-29T08:38:19.978Z,97260.16
2022-11-29T08:40:46.403Z,97261.16
2022-11-29T08:43:12.844Z,97265.19
2022-11-29T08:45:39.392Z,97267.28
2022-11-29T08:48:06.322Z,97261.03
2022-11-29T08:50:32.775Z,97256.19
2022-11-29T08:53:17.954Z,97271.44
2022-11-29T08:55:46.517Z,97269.72
2022-11-29T08:58:17.890Z,97262.63
2022-11-29T09:00:46.870Z,97272.91
2022-11-29T09:03:32.097Z,97280.91
2022-11-29T09:06:10.464Z,97288.06
2022-11-29T09:08:39.546Z,97278.56
2022-11-29T09:11:17.984Z,97282.16
2022-11-29T09:13:47.221Z,97285.19
2022-11-29T09:16:18.039Z,97284.94
2022-11-29T09:18:51.901Z,97292.19
2022-11-29T09:21:18.864Z,97299.00
2022-11-29T09:23:46.117Z,97296.09
2022-11-29T09:26:18.317Z,97293.44
2022-11-29T09:28:47.354Z,97292.75
2022-11-29T09:31:17.678Z,97301.63
2022-11-29T09:33:45.569Z,97294.94
2022-11-29T09:36:12.667Z,97298.53
2022-11-29T09:38:39.330Z,97297.78
2022-11-29T09:41:21.734Z,97294.19
2022-11-29T09:44:17.193Z,97292.41
2022-11-29T09:46:55.764Z,97297.59
2022-11-29T09:49:42.924Z,97293.00
2022-11-29T09:52:57.105Z,97293.41
2022-11-29T09:55:26.209Z,97292.25
2022-11-29T09:57:58.038Z,97291.09
2022-11-29T10:00:26.001Z,97293.75
2022-11-29T10:03:04.027Z,97288.59
2022-11-29T10:05:46.923Z,97282.22
2022-11-29T10:08:25.853Z,97286.16
2022-11-29T10:10:58.601Z,97278.28
2022-11-29T10:13:35.422Z,97290.56
2022-11-29T10:16:13.244Z,97286.97
2022-11-29T10:18:56.132Z,97286.97
2022-11-29T10:21:29.086Z,97281.03
2022-11-29T10:24:01.321Z,97279.50
2022-11-29T10:26:33.550Z,97280.03
2022-11-29T10:29:01.534Z,97282.53
2022-11-29T10:31:32.513Z,97287.72
2022-11-29T10:34:01.397Z,97291.00
2022-11-29T10:36:40.733Z,97279.34
2022-11-29T10:39:37.172Z,97280.19
2022-11-29T10:42:06.504Z,97282.50
2022-11-29T10:44:33.731Z,97280.63
2022-11-29T10:47:07.835Z,97278.66
2022-11-29T10:49:37.315Z,97279.28
2022-11-29T10:52:03.765Z,97285.00
2022-11-29T10:54:46.245Z,97279.34
2022-11-29T10:57:17.285Z,97271.13
2022-11-29T11:00:00.376Z,97268.63
2022-11-29T11:02:27.767Z,97271.81
2022-11-29T11:04:54.570Z,97274.47
2022-11-29T11:07:29.400Z,97276.41
2022-11-29T11:09:57.941Z,97271.88
2022-11-29T11:12:29.992Z,97275.81
2022-11-29T11:15:26.526Z,97268.88
2022-11-29T11:18:20.189Z,97276.84
2022-11-29T11:20:54.190Z,97279.34
2022-11-29T11:23:30.349Z,97284.81
2022-11-29T11:26:02.922Z,97276.09
2022-11-29T11:28:34.695Z,97272.03
2022-11-29T11:31:09.773Z,97276.66
2022-11-29T11:33:48.688Z,97279.06
2022-11-29T11:36:30.099Z,97276.22
2022-11-29T11:39:13.301Z,97275.84
2022-11-29T11:42:02.475Z,97273.88
2022-11-29T11:44:52.007Z,97278.97
2022-11-29T11:47:20.838Z,97277.31
2022-11-29T11:49:53.458Z,97275.56
2022-11-29T11:52:27.541Z,97275.00
2022-11-29T11:54:57.924Z,97283.25
2022-11-29T11:57:26.097Z,97283.16
2022-11-29T11:59:54.500Z,97283.50
2022-11-29T12:02:40.850Z,97286.09
2022-11-29T12:05:18.825Z,97283.28
2022-11-29T12:08:08.517Z,97279.47
2022-11-29T12:10:40.351Z,97287.34
2022-11-29T12:13:18.149Z,97290.31
2022-11-29T12:15:49.636Z,97283.03
2022-11-29T12:18:43.490Z,97299.81
2022-11-29T12:21:14.339Z,97298.03
2022-11-29T12:24:04.016Z,97294.25
2022-11-29T12:26:57.151Z,97293.50
2022-11-29T12:29:29.787Z,97293.59
2022-11-29T12:32:25.393Z,97292.47
2022-11-29T12:35:30.890Z,97303.50
2022-11-29T12:38:19.576Z,97311.59
2022-11-29T12:40:52.474Z,97305.00
2022-11-29T12:43:34.136Z,97301.38
2022-11-29T12:46:10.000Z,97299.34
2022-11-29T12:48:54.294Z,97305.38
2022-11-29T12:51:29.882Z,97307.59
2022-11-29T12:54:27.493Z,97312.78
2022-11-29T12:57:09.273Z,97317.44
2022-11-29T13:00:03.620Z,97323.16
2022-11-29T13:02:39.546Z,97324.69
2022-11-29T13:05:16.573Z,97319.56
2022-11-29T13:07:49.037Z,97313.53
2022-11-29T13:10:34.469Z,97313.53
2022-11-29T13:13:33.257Z,97323.47
2022-11-29T13:16:30.847Z,97322.63
2022-11-29T13:19:17.319Z,97319.47
2022-11-29T13:21:46.891Z,97323.66
2022-11-29T13:24:47.423Z,97320.38
2022-11-29T13:27:23.467Z,97329.09
2022-11-29T13:29:53.562Z,97324.28
2022-11-29T13:32:45.759Z,97328.16
2022-11-29T13:35:26.416Z,97334.66
2022-11-29T13:37:58.930Z,97334.38
2022-11-29T13:40:37.412Z,97336.03
2022-11-29T13:43:39.573Z,97336.19
2022-11-29T13:46:37.284Z,97343.63
2022-11-29T13:49:03.826Z,97334.69
2022-11-29T13:51:37.325Z,97333.53
2022-11-29T13:54:27.903Z,97340.25
2022-11-29T13:57:09.085Z,97338.97
2022-11-29T13:59:45.878Z,97340.44
2022-11-29T14:02:43.403Z,97344.50
2022-11-29T14:05:26.148Z,97341.44
2022-11-29T14:08:48.158Z,97339.41
2022-11-29T14:11:26.884Z,97339.13
2022-11-29T14:14:24.370Z,97344.88
2022-11-29T14:16:54.579Z,97338.94
2022-11-29T14:19:28.857Z,97341.03
2022-11-29T14:22:09.987Z,97338.41
2022-11-29T14:24:36.518Z,97336.75
2022-11-29T14:27:06.079Z,97332.13
2022-11-29T14:29:50.871Z,97337.66
2022-11-29T14:32:24.593Z,97343.34
2022-11-29T14:34:55.188Z,97346.69
2022-11-29T14:37:34.082Z,97338.94
2022-11-29T14:40:11.355Z,97342.69
2022-11-29T14:42:46.851Z,97353.38
2022-11-29T14:45:32.120Z,97362.25
2022-11-29T14:47:59.303Z,97356.38
2022-11-29T14:50:38.802Z,97369.00
2022-11-29T14:53:07.368Z,97363.16
2022-11-29T14:55:37.235Z,97372.25
2022-11-29T14:58:18.834Z,97368.59
2022-11-29T15:00:48.303Z,97372.94
2022-11-29T15:03:24.793Z,97375.59
2022-11-29T15:05:55.554Z,97370.28
2022-11-29T15:08:37.382Z,97378.38
2022-11-29T15:11:35.303Z,97376.63
2022-11-29T15:14:25.029Z,97385.41
2022-11-29T15:16:57.570Z,97387.31
2022-11-29T15:19:57.743Z,97389.97
2022-11-29T15:22:32.822Z,97386.88
2022-11-29T15:25:12.298Z,97383.13
2022-11-29T15:27:52.494Z,97392.06
2022-11-29T15:30:33.248Z,97390.69
2022-11-29T15:33:01.839Z,97392.19
2022-11-29T15:35:31.088Z,97394.25
2022-11-29T15:37:57.655Z,97391.97
2022-11-29T15:40:34.846Z,97388.06
2022-11-29T15:43:13.640Z,97390.63
2022-11-29T15:45:40.251Z,97385.72
2022-11-29T15:48:31.786Z,97390.72
2022-11-29T15:51:24.471Z,97399.56
2022-11-29T15:54:13.196Z,97395.28
2022-11-29T15:57:00.461Z,97393.72
2022-11-29T15:59:51.458Z,97392.44
2022-11-29T16:02:26.316Z,97400.88
2022-11-29T16:04:56.952Z,97397.38
2022-11-29T16:07:25.895Z,97397.91
2022-11-29T16:10:01.800Z,97398.31
2022-11-29T16:12:28.331Z,97397.22
2022-11-29T16:14:56.488Z,97393.34
2022-11-29T16:17:34.250Z,97395.63
2022-11-29T16:20:19.314Z,97392.97
2022-11-29T16:22:45.881Z,97398.53
2022-11-29T16:25:17.897Z,97401.97
2022-11-29T16:27:45.476Z,97406.03
2022-11-29T16:30:23.742Z,97405.38
2022-11-29T16:32:57.948Z,97415.03
2022-11-29T16:35:27.487Z,97410.78
2022-11-29T16:37:54.617Z,97409.09
2022-11-29T16:40:31.481Z,97408.78
2022-11-29T16:43:03.840Z,97408.63
2022-11-29T16:45:34.616Z,97417.31
2022-11-29T16:48:02.727Z,97420.94
2022-11-29T16:50:31.316Z,97418.44
2022-11-29T16:53:37.017Z,97407.13
2022-11-29T16:56:05.545Z,97414.41
2022-11-29T16:58:34.654Z,97425.13
2022-11-29T17:01:31.382Z,97430.28
2022-11-29T17:04:01.352Z,97429.09
2022-11-29T17:06:29.529Z,97441.16
2022-11-29T17:08:58.714Z,97438.75
2022-11-29T17:11:25.770Z,97446.34
2022-11-29T17:13:52.206Z,97451.69
2022-11-29T17:16:23.485Z,97445.81
2022-11-29T17:18:52.687Z,97445.56
2022-11-29T17:21:24.424Z,97456.28
2022-11-29T17:23:52.336Z,97452.41
2022-11-29T17:26:19.527Z,97456.19
2022-11-29T17:28:47.651Z,97456.31
2022-11-29T17:31:17.176Z,97462.69
2022-11-29T17:33:43.760Z,97464.63
2022-11-29T17:36:12.756Z,97469.19
2022-11-29T17:38:39.288Z,97464.34
2022-11-29T17:41:10.575Z,97467.38
2022-11-29T17:43:37.399Z,97465.56
2022-11-29T17:46:23.875Z,97469.19
2022-11-29T17:48:52.178Z,97462.22
2022-11-29T17:51:50.506Z,97458.84
2022-11-29T17:54:08.641Z,97460.59
2022-11-29T17:56:35.303Z,97467.94
2022-11-29T17:59:03.708Z,97474.63
2022-11-29T18:01:33.245Z,97466.94
2022-11-29T18:04:02.155Z,97474.19
2022-11-29T18:06:34.920Z,97481.34
2022-11-29T18:09:03.552Z,97494.03
2022-11-29T18:11:46.913Z,97500.84
2022-11-29T18:14:16.817Z,97496.31
2022-11-29T18:16:45.519Z,97509.09
2022-11-29T18:19:14.977Z,97500.72
2022-11-29T18:21:41.802Z,97487.00
2022-11-29T18:24:09.191Z,97496.50
2022-11-29T18:26:37.113Z,97500.22
2022-11-29T18:29:05.381Z,97501.06
2022-11-29T18:31:34.659Z,97506.53
2022-11-29T18:34:02.993Z,97503.38
2022-11-29T18:36:32.786Z,97502.22
2022-11-29T18:39:00.390Z,97494.47
2022-11-29T18:41:30.933Z,97493.69
2022-11-29T18:44:06.377Z,97499.13
2022-11-29T18:46:35.736Z,97509.94
2022-11-29T18:49:04.906Z,97510.84
2022-11-29T18:51:32.095Z,97516.78
2022-11-29T18:53:59.193Z,97513.16
2022-11-29T18:56:29.128Z,97511.13
2022-11-29T18:59:03.162Z,97515.53
2022-11-29T19:01:32.589Z,97525.19
2022-11-29T19:04:00.830Z,97521.22
2022-11-29T19:06:38.570Z,97514.28
2022-11-29T19:09:07.409Z,97521.03
2022-11-29T19:11:34.591Z,97517.75
2022-11-29T19:14:04.242Z,97516.06
2022-11-29T19:16:33.483Z,97526.69
2022-11-29T19:19:01.093Z,97532.28
2022-11-29T19:21:31.794Z,97522.38
2022-11-29T19:24:00.822Z,97521.44
2022-11-29T19:26:29.384Z,97529.34
2022-11-29T19:28:56.334Z,97528.03
2022-11-29T19:31:27.338Z,97529.19
2022-11-29T19:33:57.233Z,97530.91
2022-11-29T19:36:26.728Z,97526.84
2022-11-29T19:38:55.789Z,97522.38
2022-11-29T19:41:29.647Z,97530.97
2022-11-29T19:44:00.089Z,97529.34
2022-11-29T19:46:32.252Z,97524.97
2022-11-29T19:49:00.008Z,97525.03
2022-11-29T19:51:29.241Z,97519.44
2022-11-29T19:54:00.064Z,97518.03
2022-11-29T19:56:27.787Z,97514.41
2022-11-29T19:58:55.281Z,97516.31
2022-11-29T20:01:28.003Z,97530.47
2022-11-29T20:03:58.708Z,97538.44
2022-11-29T20:06:29.806Z,97539.81
2022-11-29T20:08:57.247Z,97545.34
2022-11-29T20:11:25.279Z,97544.69
2022-11-29T20:13:55.532Z,97550.97
2022-11-29T20:16:23.248Z,97550.63
2022-11-29T20:18:53.021Z,97543.09
2022-11-29T20:21:31.383Z,97540.38
2022-11-29T20:24:00.215Z,97541.22
2022-11-29T20:26:28.060Z,97541.63
2022-11-29T20:28:54.869Z,97541.00
2022-11-29T20:31:23.169Z,97536.19
2022-11-29T20:33:52.110Z,97534.66
2022-11-29T20:36:49.605Z,97543.59
2022-11-29T20:39:25.147Z,97554.38
2022-11-29T20:42:00.482Z,97548.34
2022-11-29T20:44:48.560Z,97546.88
2022-11-29T20:47:20.932Z,97549.69
2022-11-29T20:49:48.445Z,97549.38
2022-11-29T20:52:47.498Z,97548.63
2022-11-29T20:55:14.130Z,97555.31
2022-11-29T20:57:40.804Z,97554.97
2022-11-29T21:00:12.116Z,97556.09
2022-11-29T21:02:39.158Z,97560.81
2022-11-29T21:05:06.862Z,97566.19
2022-11-29T21:07:33.584Z,97559.72
2022-11-29T21:10:04.157Z,97570.75
2022-11-29T21:12:31.623Z,97573.19
2022-11-29T21:14:58.597Z,97571.97
2022-11-29T21:17:30.202Z,97575.53
2022-11-29T21:20:00.305Z,97577.25
2022-11-29T21:22:37.159Z,97577.88
2022-11-29T21:25:25.358Z,97579.25
2022-11-29T21:27:54.672Z,97584.28
2022-11-29T21:30:23.917Z,97573.66
2022-11-29T21:32:53.208Z,97573.03
2022-11-29T21:35:19.932Z,97578.34
2022-11-29T21:37:46.900Z,97578.41
2022-11-29T21:40:14.573Z,97579.56
2022-11-29T21:42:41.197Z,97575.44
2022-11-29T21:45:15.366Z,97576.09
2022-11-29T21:47:43.953Z,97574.44
2022-11-29T21:50:11.805Z,97569.44
2022-11-29T21:52:38.396Z,97565.53
2022-11-29T21:55:05.670Z,97565.09
2022-11-29T21:57:32.207Z,97563.50
2022-11-29T21:59:58.791Z,97566.63
2022-11-29T22:02:27.928Z,97572.91
2022-11-29T22:04:54.522Z,97555.81
2022-11-29T22:07:21.123Z,97555.81
2022-11-29T22:09:47.734Z,97554.88
2022-11-29T22:12:33.266Z,97551.63
2022-11-29T22:15:00.823Z,97551.69
2022-11-29T22:17:27.386Z,97546.34
2022-11-29T22:19:54.082Z,97546.34
2022-11-29T22:22:20.747Z,97551.91
2022-11-29T22:24:49.832Z,97552.50
2022-11-29T22:27:18.381Z,97551.75
2022-11-29T22:29:45.211Z,97556.25
2022-11-29T22:32:11.747Z,97556.09
2022-11-29T22:34:38.314Z,97547.06
2022-11-29T22:37:04.877Z,97550.84
2022-11-29T22:39:31.466Z,97558.19
2022-11-29T22:42:00.265Z,97557.28
2022-11-29T22:44:26.848Z,97566.19
2022-11-29T22:46:53.486Z,97550.38
2022-11-29T22:49:20.078Z,97558.59
2022-11-29T22:51:46.636Z,97560.47
2022-11-29T22:54:16.599Z,97559.28
2022-11-29T22:56:47.029Z,97553.72
2022-11-29T22:59:16.527Z,97555.19
2022-11-29T23:01:43.232Z,97556.91
2022-11-29T23:04:12.164Z,97562.03
2022-11-29T23:06:43.745Z,97557.91
2022-11-29T23:09:16.571Z,97552.03
2022-11-29T23:11:44.941Z,97559.94
2022-11-29T23:14:12.031Z,97553.50
2022-11-29T23:16:41.477Z,97559.94
2022-11-29T23:19:08.805Z,97555.09
2022-11-29T23:21:38.019Z,97560.75
2022-11-29T23:24:05.192Z,97569.97
2022-11-29T23:26:37.523Z,97564.81
2022-11-29T23:29:05.306Z,97565.59
2022-11-29T23:31:31.987Z,97566.75
2022-11-29T23:33:58.721Z,97565.88
2022-11-29T23:36:25.564Z,97563.28
2022-11-29T23:38:52.274Z,97559.34
2022-11-29T23:41:18.880Z,97557.41
2022-11-29T23:43:47.753Z,97558.09
2022-11-29T23:46:19.058Z,97563.28
2022-11-29T23:48:48.440Z,97556.16
2022-11-29T23:51:15.713Z,97560.22
2022-11-29T23:53:44.682Z,97559.78
2022-11-29T23:56:14.553Z,97566.91
2022-11-29T23:58:42.361Z,97563.28
